Main page
METAR-TAF:

METAR-TAF

Airports :

Koksijde Air Base

Koksijde, Belgium

latitude: 51-05N, longitude: 002-39E, elevation: 4 m

Current weather observation

The report was made 38 minutes ago, at 23:25 UTC
Wind 10 kt from the West/Southwest
Temperature 14°C
Humidity 82%
Pressure 1014 hPa
Visibility 10 km or more

METAR: EBFN 052325Z AUTO 25010KT 9999 FEW025/// 14/11 Q1014 BLU

Time: 02:03 (00:03 UTC)

Forecast

The report was made 8 hours and 22 minutes ago, at 15:41 UTC
Forecast valid from 05 at 19 UTC to 06 at 07 UTC
Wind 17 kt from the West/Southwest with gusts up to 27 kt
Visibility 10 km or more
Few clouds at a height of 3000 ft
Scattered clouds at a height of 20000 ft
Becoming
from 06 at 02 UTC to 06 at 04 UTC
Wind 10 kt from the West

TAF: EBFN 051541Z 0519/0607 25017G27KT 9999 FEW030 SCT200 BECMG 0602/0604 26010KT

Weather observations and forecasts of more than 4000 airports (METAR and TAF reports).

The available stations are represented by yellow and red dots on the map.

Hover mouse over dot to see the name of the station.

Then click to see weather observations and forecasts.

To change the map : click on the green buttons with a black cross to zoom in, on the green button with a dash to zoom out, or on the green arrows for adjacent maps.


METAR-TAF: